Time;durP1;ratioP1;P1;durP2;ratioP2;P2;SDS_P1;SDS_P2;PMS_P1;PMS_P2;Temp;Humidity;BMP_temperature;BMP_pressure;BME280_temperature;BME280_humidity;BME280_pressure;Samples;Min_cycle;Max_cycle;Signal;HPM_P1;HPM_P2
2021/01/01 00:00:14;;;;;;;11.20;7.60;;;6.70;1.00;;;;;;5095223;28;20020;-86
2021/01/01 00:02:40;;;;;;;12.15;7.93;;;6.70;1.00;;;;;;5093976;28;20107;-87
2021/01/01 00:05:07;;;;;;;10.63;8.45;;;6.80;1.00;;;;;;5094925;28;20145;-87
2021/01/01 00:07:33;;;;;;;13.23;8.55;;;6.80;1.00;;;;;;5100310;28;20043;-88
2021/01/01 00:09:59;;;;;;;9.75;7.57;;;6.70;1.00;;;;;;5102867;28;20396;-87
2021/01/01 00:12:24;;;;;;;13.13;8.20;;;6.70;1.00;;;;;;5112807;28;20051;-87
2021/01/01 00:14:50;;;;;;;18.90;11.88;;;6.90;1.00;;;;;;5113975;28;20028;-87
2021/01/01 00:17:16;;;;;;;12.82;9.07;;;6.80;1.00;;;;;;5099122;28;20904;-87
2021/01/01 00:19:41;;;;;;;10.50;7.00;;;6.70;1.00;;;;;;5093096;28;20107;-87
2021/01/01 00:22:11;;;;;;;9.32;6.55;;;6.80;1.00;;;;;;5105889;28;20408;-86
2021/01/01 00:24:37;;;;;;;11.15;6.78;;;6.70;1.00;;;;;;5109012;28;20047;-87
2021/01/01 00:27:03;;;;;;;8.02;6.28;;;7.00;1.00;;;;;;5111743;28;20051;-86
2021/01/01 00:29:29;;;;;;;7.45;6.28;;;6.70;1.00;;;;;;5099777;28;20020;-87
2021/01/01 00:31:54;;;;;;;6.82;5.32;;;6.70;1.00;;;;;;5098856;28;20405;-87
2021/01/01 00:34:20;;;;;;;11.07;7.40;;;6.60;1.00;;;;;;5095875;28;20082;-87
2021/01/01 00:36:46;;;;;;;10.82;7.57;;;6.50;1.00;;;;;;5099985;28;20027;-87
2021/01/01 00:39:11;;;;;;;12.32;9.48;;;6.60;1.00;;;;;;5099501;28;20058;-87
2021/01/01 00:41:37;;;;;;;15.98;9.20;;;6.60;1.00;;;;;;5094982;28;20023;-87
2021/01/01 00:44:03;;;;;;;8.48;6.78;;;6.50;1.00;;;;;;5101697;28;20039;-87
2021/01/01 00:46:31;;;;;;;9.50;8.18;;;6.50;1.00;;;;;;5097693;28;20011;-86
2021/01/01 00:48:59;;;;;;;9.75;7.68;;;6.70;1.00;;;;;;5113382;28;20027;-87
2021/01/01 00:51:25;;;;;;;10.40;7.60;;;6.20;1.00;;;;;;5107433;28;20106;-87
2021/01/01 00:53:51;;;;;;;10.13;7.75;;;6.20;1.00;;;;;;5113796;28;20034;-87
2021/01/01 00:56:24;;;;;;;12.18;8.60;;;6.50;1.00;;;;;;5113733;28;20434;-87
2021/01/01 00:58:51;;;;;;;11.98;8.25;;;6.20;1.00;;;;;;5104128;28;20554;-87
2021/01/01 01:01:18;;;;;;;10.35;8.55;;;6.10;1.00;;;;;;5109571;28;20042;-87
2021/01/01 01:03:44;;;;;;;11.07;8.18;;;6.10;1.00;;;;;;5106183;28;20016;-87
2021/01/01 01:06:10;;;;;;;10.52;8.57;;;6.40;1.00;;;;;;5106328;28;20062;-86
2021/01/01 01:08:35;;;;;;;10.07;8.05;;;5.90;1.00;;;;;;5112433;28;20134;-87
2021/01/01 01:11:02;;;;;;;11.90;8.43;;;5.80;1.00;;;;;;5112011;28;20035;-87
2021/01/01 01:13:28;;;;;;;9.70;7.47;;;5.80;1.00;;;;;;5105387;28;20035;-86
2021/01/01 01:15:53;;;;;;;9.25;7.07;;;5.80;1.00;;;;;;5093786;28;20024;-87
2021/01/01 01:18:19;;;;;;;8.88;7.03;;;5.70;1.00;;;;;;5092306;28;20024;-86
2021/01/01 01:20:44;;;;;;;8.60;6.80;;;5.50;1.00;;;;;;5091846;28;20637;-87
2021/01/01 01:23:10;;;;;;;8.02;6.10;;;5.60;1.00;;;;;;5098919;28;20467;-87
2021/01/01 01:25:35;;;;;;;8.00;6.43;;;5.60;1.00;;;;;;5126255;27;20024;-87
2021/01/01 01:28:02;;;;;;;9.32;6.75;;;5.40;1.00;;;;;;5094870;28;20058;-87
2021/01/01 01:30:27;;;;;;;9.50;6.97;;;5.40;1.00;;;;;;5112685;28;20055;-87
2021/01/01 01:32:53;;;;;;;6.53;5.45;;;5.40;1.00;;;;;;5112556;28;20051;-87
2021/01/01 01:35:19;;;;;;;6.07;5.07;;;5.70;1.00;;;;;;5112294;28;20032;-86
2021/01/01 01:37:44;;;;;;;6.80;5.70;;;5.50;1.00;;;;;;5102868;28;20077;-86
2021/01/01 01:40:10;;;;;;;9.40;6.50;;;5.50;1.00;;;;;;5111798;28;20099;-87
2021/01/01 01:42:36;;;;;;;9.93;6.88;;;5.50;1.00;;;;;;5108535;28;20087;-86
2021/01/01 01:45:04;;;;;;;7.25;6.15;;;5.60;1.00;;;;;;5099584;28;20055;-87
2021/01/01 01:47:30;;;;;;;7.88;6.07;;;5.60;1.00;;;;;;5109813;28;20102;-86
2021/01/01 01:49:57;;;;;;;9.20;6.18;;;5.60;1.00;;;;;;5101349;28;20454;-87
2021/01/01 01:52:23;;;;;;;6.95;5.30;;;5.40;1.00;;;;;;5093538;28;20030;-87
2021/01/01 01:54:51;;;;;;;6.13;4.78;;;5.40;1.00;;;;;;5100324;28;20103;-87
2021/01/01 01:57:17;;;;;;;5.10;4.18;;;5.50;1.00;;;;;;5090738;28;20370;-86
2021/01/01 02:00:39;;;;;;;4.88;4.00;;;5.50;1.00;;;;;;5093332;28;20035;-87
2021/01/01 02:03:04;;;;;;;5.47;4.20;;;5.40;1.00;;;;;;5104597;28;20043;-87
2021/01/01 02:05:30;;;;;;;5.70;4.30;;;5.50;1.00;;;;;;5103246;28;20058;-86
2021/01/01 02:07:57;;;;;;;4.82;4.03;;;5.40;1.00;;;;;;5109832;28;20103;-87
2021/01/01 02:10:23;;;;;;;4.05;3.40;;;5.50;1.00;;;;;;5113321;28;20023;-86
2021/01/01 02:12:49;;;;;;;4.95;3.70;;;5.50;1.00;;;;;;5105115;28;20400;-87
2021/01/01 02:15:15;;;;;;;5.03;3.70;;;5.60;1.00;;;;;;5091585;28;20476;-86
2021/01/01 02:17:41;;;;;;;5.68;3.83;;;5.60;1.00;;;;;;5102816;28;20384;-87
2021/01/01 02:20:11;;;;;;;3.92;3.50;;;5.70;1.00;;;;;;5109904;28;20024;-87
2021/01/01 02:22:41;;;;;;;6.90;4.13;;;5.80;1.00;;;;;;5107048;28;20114;-87
2021/01/01 02:25:11;;;;;;;5.82;4.20;;;5.70;1.00;;;;;;5102203;28;20106;-87
2021/01/01 02:27:37;;;;;;;4.85;4.07;;;6.10;1.00;;;;;;5112531;28;20019;-86
2021/01/01 02:30:04;;;;;;;4.47;3.70;;;5.80;1.00;;;;;;5111512;28;20028;-87
2021/01/01 02:32:30;;;;;;;4.75;3.83;;;5.70;1.00;;;;;;5099097;28;20028;-86
2021/01/01 02:34:56;;;;;;;3.55;3.25;;;5.70;1.00;;;;;;5098696;28;20084;-87
2021/01/01 02:37:21;;;;;;;4.47;3.60;;;5.80;1.00;;;;;;5094699;28;20382;-87
2021/01/01 02:39:47;;;;;;;2.95;2.30;;;5.80;1.00;;;;;;5102242;28;20474;-87
2021/01/01 02:42:14;;;;;;;1.92;1.70;;;5.80;1.00;;;;;;5090790;28;20027;-87
2021/01/01 02:44:40;;;;;;;1.63;1.50;;;5.80;1.00;;;;;;5103524;28;20162;-87
2021/01/01 02:47:06;;;;;;;1.73;1.55;;;5.70;1.00;;;;;;5110745;28;20102;-87
2021/01/01 02:49:32;;;;;;;4.55;2.90;;;5.70;1.00;;;;;;5090440;28;20485;-87
2021/01/01 02:51:59;;;;;;;1.65;1.52;;;5.70;1.00;;;;;;5092014;28;20105;-87
2021/01/01 02:54:25;;;;;;;1.50;1.30;;;5.60;1.00;;;;;;5097261;28;20473;-87
2021/01/01 02:56:51;;;;;;;1.58;1.35;;;5.60;1.00;;;;;;5103900;28;20021;-87
2021/01/01 02:59:17;;;;;;;1.40;1.30;;;5.60;1.00;;;;;;5091989;28;20100;-87
2021/01/01 03:01:43;;;;;;;1.67;1.45;;;5.60;1.00;;;;;;5103813;28;20036;-87
2021/01/01 03:04:09;;;;;;;1.50;1.40;;;5.50;1.00;;;;;;5105646;28;20507;-87
2021/01/01 03:06:35;;;;;;;1.52;1.40;;;5.50;1.00;;;;;;5112836;28;20033;-87
2021/01/01 03:09:00;;;;;;;1.40;1.30;;;5.50;1.00;;;;;;5111366;28;20043;-87
2021/01/01 03:11:26;;;;;;;2.10;1.60;;;5.50;1.00;;;;;;5095627;28;20139;-87
2021/01/01 03:13:52;;;;;;;1.75;1.50;;;5.50;1.00;;;;;;5106172;28;20074;-87
2021/01/01 03:16:17;;;;;;;1.88;1.50;;;5.50;1.00;;;;;;5114345;28;20032;-86
2021/01/01 03:18:43;;;;;;;1.58;1.48;;;5.30;1.00;;;;;;5105329;28;20118;-87
2021/01/01 03:21:08;;;;;;;1.60;1.50;;;5.70;1.00;;;;;;5095953;28;20393;-87
2021/01/01 03:23:34;;;;;;;1.67;1.58;;;5.30;1.00;;;;;;5094087;28;20442;-87
2021/01/01 03:26:00;;;;;;;1.95;1.60;;;5.30;1.00;;;;;;5095454;28;20016;-87
2021/01/01 03:28:25;;;;;;;2.20;1.60;;;5.40;1.00;;;;;;5093694;28;20025;-87
2021/01/01 03:30:51;;;;;;;1.70;1.60;;;5.30;1.00;;;;;;5113554;28;20032;-86
2021/01/01 03:33:16;;;;;;;1.73;1.60;;;5.30;1.00;;;;;;5108678;28;20016;-87
2021/01/01 03:35:42;;;;;;;2.40;1.60;;;5.30;1.00;;;;;;5108271;28;20042;-87
2021/01/01 03:38:08;;;;;;;1.70;1.58;;;5.20;1.00;;;;;;5106525;28;20098;-87
2021/01/01 03:40:33;;;;;;;1.92;1.70;;;5.20;1.00;;;;;;5114760;28;20020;-87
2021/01/01 03:42:59;;;;;;;1.60;1.50;;;5.10;1.00;;;;;;5107086;28;20024;-86
2021/01/01 03:45:25;;;;;;;2.10;1.70;;;5.00;1.00;;;;;;5103618;28;20419;-86
2021/01/01 03:47:51;;;;;;;1.75;1.65;;;5.10;1.00;;;;;;5108644;28;20459;-87
2021/01/01 03:50:16;;;;;;;1.90;1.80;;;5.40;1.00;;;;;;5094669;28;20036;-87
2021/01/01 03:52:42;;;;;;;2.15;1.77;;;5.40;1.00;;;;;;5114438;28;20523;-87
2021/01/01 03:55:08;;;;;;;1.90;1.70;;;5.20;1.00;;;;;;5103883;28;20058;-87
2021/01/01 03:57:34;;;;;;;1.67;1.58;;;5.20;1.00;;;;;;5099580;28;20020;-87
2021/01/01 03:59:59;;;;;;;2.17;1.58;;;5.00;1.00;;;;;;5095471;28;20177;-86
2021/01/01 04:02:25;;;;;;;1.80;1.70;;;5.00;1.00;;;;;;5111224;28;20205;-87
2021/01/01 04:04:50;;;;;;;8.88;3.13;;;5.10;1.00;;;;;;5111943;28;20369;-87
2021/01/01 04:07:17;;;;;;;2.33;2.10;;;5.10;1.00;;;;;;5114069;28;20062;-87
2021/01/01 04:09:43;;;;;;;2.50;2.00;;;5.10;1.00;;;;;;5113706;27;20038;-87
2021/01/01 04:12:08;;;;;;;3.05;2.15;;;5.10;1.00;;;;;;5108269;28;20081;-87
2021/01/01 04:14:34;;;;;;;3.40;2.50;;;4.90;1.00;;;;;;5107688;28;20164;-87
2021/01/01 04:17:00;;;;;;;2.55;2.20;;;5.00;1.00;;;;;;5110374;28;20019;-87
2021/01/01 04:19:26;;;;;;;3.10;2.42;;;5.00;1.00;;;;;;5094435;28;20494;-87
2021/01/01 04:21:51;;;;;;;4.25;2.72;;;5.00;1.00;;;;;;5093070;28;20393;-87
2021/01/01 04:24:18;;;;;;;3.53;2.53;;;4.90;1.00;;;;;;5094454;28;20027;-87
2021/01/01 04:26:44;;;;;;;3.55;2.92;;;5.00;1.00;;;;;;5094134;28;20073;-87
2021/01/01 04:29:10;;;;;;;2.75;2.45;;;5.10;1.00;;;;;;5093807;28;20030;-87
2021/01/01 04:31:37;;;;;;;5.97;3.08;;;5.00;1.00;;;;;;5097175;28;20099;-87
2021/01/01 04:34:04;;;;;;;3.13;2.75;;;5.00;1.00;;;;;;5097816;28;20028;-87
2021/01/01 04:36:30;;;;;;;3.38;2.70;;;5.10;1.00;;;;;;5093993;28;20020;-87
2021/01/01 04:38:56;;;;;;;4.13;3.00;;;5.00;1.00;;;;;;5094447;28;20032;-86
2021/01/01 04:41:22;;;;;;;3.40;2.63;;;5.00;1.00;;;;;;5096789;28;20432;-87
2021/01/01 04:43:51;;;;;;;2.78;2.50;;;5.00;1.00;;;;;;5098141;28;20112;-87
2021/01/01 04:46:18;;;;;;;3.05;2.67;;;5.10;1.00;;;;;;5092599;28;20020;-87
2021/01/01 04:48:44;;;;;;;2.65;2.42;;;5.10;1.00;;;;;;5100091;28;20075;-87
2021/01/01 04:51:10;;;;;;;3.03;2.70;;;5.00;1.00;;;;;;5093732;28;20069;-87
2021/01/01 04:53:40;;;;;;;4.10;2.72;;;5.10;1.00;;;;;;5093675;28;20028;-87
2021/01/01 04:56:07;;;;;;;3.65;2.95;;;5.00;1.00;;;;;;5100350;28;20059;-87
2021/01/01 04:58:34;;;;;;;3.17;2.45;;;5.00;1.00;;;;;;5096343;28;20023;-87
2021/01/01 05:01:00;;;;;;;3.22;2.45;;;5.10;1.00;;;;;;5111575;28;20024;-87
2021/01/01 05:03:26;;;;;;;3.20;2.90;;;5.10;1.00;;;;;;5098544;28;20082;-87
2021/01/01 05:05:53;;;;;;;3.47;2.83;;;5.10;1.00;;;;;;5100194;28;20019;-85
2021/01/01 05:08:19;;;;;;;3.05;2.72;;;5.00;1.00;;;;;;5113593;28;20124;-87
2021/01/01 05:10:45;;;;;;;3.25;2.80;;;5.00;1.00;;;;;;5111901;28;20020;-87
2021/01/01 05:13:15;;;;;;;4.40;2.95;;;5.10;1.00;;;;;;5093401;27;20028;-87
2021/01/01 05:15:43;;;;;;;4.60;3.65;;;5.10;1.00;;;;;;5093228;28;20175;-87
2021/01/01 05:18:25;;;;;;;4.68;3.70;;;5.10;1.00;;;;;;5106165;28;20035;-87
2021/01/01 05:20:54;;;;;;;4.25;3.47;;;4.80;1.00;;;;;;5113035;28;20507;-87
2021/01/01 05:23:21;;;;;;;5.03;4.03;;;5.00;1.00;;;;;;5106576;28;20020;-87
2021/01/01 05:25:49;;;;;;;4.75;4.10;;;4.90;1.00;;;;;;5093287;28;20028;-87
2021/01/01 05:28:15;;;;;;;4.13;3.67;;;4.90;1.00;;;;;;5094872;28;20158;-87
2021/01/01 05:30:41;;;;;;;5.47;4.00;;;5.10;1.00;;;;;;5106476;28;20024;-87
2021/01/01 05:33:08;;;;;;;3.88;3.42;;;4.70;1.00;;;;;;5093034;28;20032;-87
2021/01/01 05:35:34;;;;;;;3.85;3.45;;;4.80;1.00;;;;;;5092362;28;20024;-87
2021/01/01 05:38:18;;;;;;;3.30;3.00;;;4.60;1.00;;;;;;5091552;28;20042;-87
2021/01/01 05:40:48;;;;;;;3.67;3.33;;;4.50;1.00;;;;;;5092079;28;20111;-87
2021/01/01 05:43:32;;;;;;;3.80;3.40;;;4.80;1.00;;;;;;5093577;28;20020;-87
2021/01/01 05:46:08;;;;;;;3.95;3.30;;;4.40;1.00;;;;;;5092221;28;20024;-87
2021/01/01 05:48:34;;;;;;;3.40;3.10;;;4.30;1.00;;;;;;5110416;28;20081;-87
2021/01/01 05:51:06;;;;;;;3.60;3.00;;;4.30;1.00;;;;;;5095034;28;20028;-87
2021/01/01 05:53:33;;;;;;;4.75;3.10;;;4.30;1.00;;;;;;5102252;28;20519;-87
2021/01/01 05:56:09;;;;;;;3.67;3.30;;;4.60;1.00;;;;;;5110240;28;20051;-87
2021/01/01 05:58:35;;;;;;;3.42;3.13;;;4.40;1.00;;;;;;5091463;28;20508;-87
2021/01/01 06:01:02;;;;;;;3.85;3.30;;;4.30;1.00;;;;;;5100647;28;20031;-87
2021/01/01 06:03:33;;;;;;;3.88;3.40;;;4.40;1.00;;;;;;5098803;28;20026;-87
2021/01/01 06:06:04;;;;;;;4.00;3.58;;;4.80;1.00;;;;;;5098506;28;20043;-87
2021/01/01 06:08:30;;;;;;;3.45;3.15;;;4.40;1.00;;;;;;5112791;28;20541;-86
2021/01/01 06:11:01;;;;;;;4.30;3.60;;;4.60;1.00;;;;;;5105477;28;20374;-87
2021/01/01 06:13:33;;;;;;;4.10;3.70;;;4.60;1.00;;;;;;5097691;28;20415;-87
2021/01/01 06:16:09;;;;;;;3.53;3.22;;;4.80;1.00;;;;;;5104373;28;20045;-87
2021/01/01 06:18:36;;;;;;;4.07;3.47;;;4.50;1.00;;;;;;5100854;28;20523;-87
2021/01/01 06:21:04;;;;;;;3.67;3.38;;;4.40;1.00;;;;;;5094279;28;20086;-87
2021/01/01 06:23:32;;;;;;;3.90;3.38;;;4.40;1.00;;;;;;5094444;28;20023;-87
2021/01/01 06:25:59;;;;;;;4.13;3.70;;;4.70;1.00;;;;;;5111060;28;20012;-87
2021/01/01 06:28:26;;;;;;;4.22;3.83;;;4.50;1.00;;;;;;5091869;28;20039;-87
2021/01/01 06:30:54;;;;;;;4.28;3.88;;;4.40;1.00;;;;;;5091491;28;20020;-87
2021/01/01 06:33:20;;;;;;;5.05;3.97;;;4.40;1.00;;;;;;5092564;28;20028;-87
2021/01/01 06:35:46;;;;;;;3.97;3.58;;;4.70;1.00;;;;;;5098475;28;20107;-87
2021/01/01 06:38:39;;;;;;;5.13;4.30;;;4.40;1.00;;;;;;5090977;28;20032;-87
2021/01/01 06:41:25;;;;;;;4.32;3.92;;;4.40;1.00;;;;;;5110568;28;20071;-87
2021/01/01 06:43:53;;;;;;;4.95;4.28;;;4.70;1.00;;;;;;5101094;28;20032;-87
2021/01/01 06:46:32;;;;;;;4.80;4.30;;;4.50;1.00;;;;;;5096097;28;20044;-86
2021/01/01 06:48:58;;;;;;;5.32;4.13;;;4.20;1.00;;;;;;5094848;28;20535;-87
2021/01/01 06:51:24;;;;;;;5.72;4.60;;;4.50;1.00;;;;;;5105932;28;20047;-87
2021/01/01 06:53:50;;;;;;;4.60;4.18;;;4.20;1.00;;;;;;5111075;28;20040;-86
2021/01/01 06:56:18;;;;;;;5.05;4.13;;;4.00;1.00;;;;;;5111311;28;20027;-87
2021/01/01 06:58:44;;;;;;;5.30;4.63;;;4.30;1.00;;;;;;5111796;28;20031;-87
2021/01/01 07:01:17;;;;;;;4.43;3.70;;;4.00;1.00;;;;;;5103350;28;20024;-87
2021/01/01 07:03:43;;;;;;;6.35;3.70;;;4.20;1.00;;;;;;5114786;28;20020;-87
2021/01/01 07:06:09;;;;;;;4.40;3.97;;;4.00;1.00;;;;;;5105010;28;20020;-87
2021/01/01 07:08:43;;;;;;;5.45;3.90;;;4.30;1.00;;;;;;5105725;28;20523;-87
2021/01/01 07:11:18;;;;;;;4.88;4.10;;;4.30;1.00;;;;;;5102235;28;20024;-87
2021/01/01 07:13:55;;;;;;;4.10;3.70;;;4.20;1.00;;;;;;5111745;28;20031;-87
2021/01/01 07:16:24;;;;;;;4.32;3.70;;;4.10;1.00;;;;;;5108392;28;20031;-87
2021/01/01 07:18:52;;;;;;;4.43;4.00;;;4.20;1.00;;;;;;5115054;28;20042;-87
2021/01/01 07:21:18;;;;;;;3.90;3.50;;;4.00;1.00;;;;;;5102432;28;20024;-87
2021/01/01 07:23:45;;;;;;;4.13;3.72;;;4.00;1.00;;;;;;5095280;28;20424;-87
2021/01/01 07:26:12;;;;;;;4.13;3.72;;;4.30;1.00;;;;;;5109299;28;20115;-87
2021/01/01 07:28:42;;;;;;;4.30;3.65;;;4.40;1.00;;;;;;5115068;28;20066;-86
2021/01/01 07:31:08;;;;;;;4.38;3.67;;;4.00;1.00;;;;;;5110720;28;20507;-87
2021/01/01 07:33:34;;;;;;;5.63;4.22;;;4.30;1.00;;;;;;5113117;28;20028;-86
2021/01/01 07:36:05;;;;;;;5.10;4.28;;;4.40;1.00;;;;;;5114406;28;20076;-87
2021/01/01 07:38:39;;;;;;;4.82;4.32;;;3.90;1.00;;;;;;5114592;28;20019;-88
2021/01/01 07:41:05;;;;;;;5.30;4.80;;;4.00;1.00;;;;;;5098260;28;20024;-93
2021/01/01 07:43:32;;;;;;;5.03;4.38;;;4.50;1.00;;;;;;5093610;28;20047;-86
2021/01/01 07:45:59;;;;;;;6.22;5.07;;;3.90;1.00;;;;;;5100898;28;20027;-86
2021/01/01 07:48:25;;;;;;;6.07;5.47;;;3.90;1.00;;;;;;5099771;28;20032;-86
2021/01/01 07:50:52;;;;;;;6.70;5.10;;;4.20;1.00;;;;;;5098519;28;20024;-87
2021/01/01 07:53:17;;;;;;;5.90;5.10;;;4.00;1.00;;;;;;5108492;28;20497;-86
2021/01/01 07:55:43;;;;;;;7.00;5.75;;;4.40;1.00;;;;;;5095546;28;20027;-86
2021/01/01 07:58:13;;;;;;;5.63;5.00;;;3.80;1.00;;;;;;5098032;28;20050;-86
2021/01/01 08:00:48;;;;;;;6.40;5.50;;;3.90;1.00;;;;;;5104714;28;20027;-87
2021/01/01 08:03:14;;;;;;;6.57;5.22;;;3.80;1.00;;;;;;5097351;28;20063;-89
2021/01/01 08:05:47;;;;;;;6.53;5.40;;;3.70;1.00;;;;;;5105109;28;20051;-88
2021/01/01 08:08:23;;;;;;;7.70;6.20;;;3.90;1.00;;;;;;5098893;28;20040;-89
2021/01/01 08:10:54;;;;;;;6.82;5.97;;;4.20;1.00;;;;;;5113029;28;20445;-89
2021/01/01 08:13:20;;;;;;;6.93;6.22;;;3.90;1.00;;;;;;5102014;28;20024;-88
2021/01/01 08:15:48;;;;;;;7.30;6.50;;;3.90;1.00;;;;;;5098807;28;20035;-88
2021/01/01 08:18:16;;;;;;;6.45;5.78;;;4.40;1.00;;;;;;5097025;28;20047;-89
2021/01/01 08:20:46;;;;;;;8.63;7.15;;;3.90;1.00;;;;;;5095559;28;20031;-88
2021/01/01 08:23:16;;;;;;;8.45;6.68;;;3.90;1.00;;;;;;5111129;28;20068;-88
2021/01/01 08:25:44;;;;;;;8.88;6.72;;;3.90;1.00;;;;;;5110611;28;20041;-88
2021/01/01 08:28:10;;;;;;;7.78;6.93;;;3.80;1.00;;;;;;5107590;28;20032;-88
2021/01/01 08:30:38;;;;;;;8.05;6.38;;;3.90;1.00;;;;;;5104516;28;20409;-88
2021/01/01 08:33:08;;;;;;;8.07;6.22;;;4.10;1.00;;;;;;5093838;28;20034;-87
2021/01/01 08:35:34;;;;;;;7.65;6.40;;;4.40;1.00;;;;;;5091174;28;20426;-88
2021/01/01 08:38:17;;;;;;;7.93;6.47;;;4.40;1.00;;;;;;5093810;28;20499;-88
2021/01/01 08:40:43;;;;;;;8.55;6.85;;;4.00;1.00;;;;;;5092941;28;20053;-88
2021/01/01 08:43:10;;;;;;;11.45;9.60;;;4.40;1.00;;;;;;5092432;28;20023;-88
2021/01/01 08:45:36;;;;;;;8.45;6.75;;;4.00;1.00;;;;;;5092525;28;20032;-88
2021/01/01 08:48:11;;;;;;;11.15;8.45;;;4.50;1.00;;;;;;5096347;28;20036;-88
2021/01/01 08:50:51;;;;;;;11.38;9.05;;;4.20;1.00;;;;;;5113682;28;20488;-88
2021/01/01 08:53:17;;;;;;;8.85;7.13;;;4.10;1.00;;;;;;5112618;28;20027;-88
2021/01/01 08:55:44;;;;;;;8.85;7.20;;;4.20;1.00;;;;;;5114002;27;20031;-89
2021/01/01 08:58:16;;;;;;;8.88;7.05;;;4.20;1.00;;;;;;5113947;28;20073;-89
2021/01/01 09:00:46;;;;;;;9.50;7.18;;;4.20;1.00;;;;;;5105094;28;20484;-88
2021/01/01 09:03:12;;;;;;;8.52;6.78;;;4.90;1.00;;;;;;5113296;28;20027;-89
2021/01/01 09:05:38;;;;;;;9.13;7.68;;;4.60;1.00;;;;;;5111570;28;20023;-89
2021/01/01 09:08:20;;;;;;;9.38;7.45;;;4.70;1.00;;;;;;5112480;28;20057;-93
2021/01/01 09:10:47;;;;;;;8.07;7.13;;;4.50;1.00;;;;;;5113068;28;20496;-89
2021/01/01 09:13:32;;;;;;;10.73;7.95;;;4.90;1.00;;;;;;5108852;28;20072;-89
2021/01/01 09:16:11;;;;;;;9.77;7.57;;;4.50;1.00;;;;;;5104010;28;20031;-88
2021/01/01 09:18:37;;;;;;;10.18;8.05;;;4.40;1.00;;;;;;5113185;28;20369;-89
2021/01/01 09:21:17;;;;;;;9.50;7.72;;;4.90;1.00;;;;;;5112288;28;20020;-89
2021/01/01 09:23:53;;;;;;;9.77;8.30;;;4.70;1.00;;;;;;5107727;28;20030;-89
2021/01/01 09:26:24;;;;;;;9.85;7.95;;;4.70;1.00;;;;;;5092892;28;20027;-88
2021/01/01 09:29:03;;;;;;;8.77;7.13;;;4.70;1.00;;;;;;5103791;28;20019;-88
2021/01/01 09:31:30;;;;;;;10.27;8.00;;;4.60;1.00;;;;;;5100377;28;20020;-88
2021/01/01 09:34:06;;;;;;;9.77;7.85;;;4.70;1.00;;;;;;5103249;28;20035;-89
2021/01/01 09:36:34;;;;;;;9.55;7.55;;;4.90;1.00;;;;;;5111400;28;20035;-88
2021/01/01 09:38:59;;;;;;;10.00;8.50;;;4.80;1.00;;;;;;5112704;28;20038;-93
2021/01/01 09:41:26;;;;;;;11.60;7.82;;;4.90;1.00;;;;;;5112443;28;20023;-92
2021/01/01 09:43:52;;;;;;;12.77;8.82;;;5.10;1.00;;;;;;5109280;28;20148;-90
2021/01/01 09:46:17;;;;;;;14.68;10.25;;;5.00;1.00;;;;;;5092494;28;20096;-88
2021/01/01 09:48:43;;;;;;;12.90;10.13;;;5.10;1.00;;;;;;5095436;28;20036;-87
2021/01/01 09:51:08;;;;;;;10.38;8.65;;;5.10;1.00;;;;;;5093106;28;20024;-87
2021/01/01 09:53:34;;;;;;;10.32;8.10;;;5.10;1.00;;;;;;5101473;28;20028;-87
2021/01/01 09:56:00;;;;;;;10.52;8.27;;;5.20;1.00;;;;;;5113409;28;20140;-87
2021/01/01 09:58:25;;;;;;;9.52;7.78;;;5.10;1.00;;;;;;5112029;28;20035;-89
2021/01/01 10:00:51;;;;;;;11.48;8.93;;;5.00;1.00;;;;;;5108814;28;20055;-88
2021/01/01 10:03:17;;;;;;;9.43;7.57;;;5.00;1.00;;;;;;5113071;28;20026;-88
2021/01/01 10:05:45;;;;;;;8.55;6.80;;;5.10;1.00;;;;;;5112781;28;20463;-88
2021/01/01 10:08:11;;;;;;;9.75;7.25;;;5.10;1.00;;;;;;5112245;28;20084;-88
2021/01/01 10:10:36;;;;;;;11.85;7.78;;;5.00;1.00;;;;;;5111758;28;20023;-88
2021/01/01 10:13:02;;;;;;;8.07;6.80;;;5.10;1.00;;;;;;5112960;28;20473;-87
2021/01/01 10:15:28;;;;;;;8.32;6.90;;;5.30;1.00;;;;;;5106043;28;20038;-88
2021/01/01 10:17:53;;;;;;;12.02;8.18;;;5.20;1.00;;;;;;5095297;28;20020;-88
2021/01/01 10:20:19;;;;;;;10.25;7.35;;;5.40;1.00;;;;;;5097440;28;20016;-88
2021/01/01 10:22:44;;;;;;;9.82;7.50;;;5.50;1.00;;;;;;5095992;28;20043;-88
2021/01/01 10:25:11;;;;;;;10.52;7.32;;;5.30;1.00;;;;;;5095959;28;20020;-88
2021/01/01 10:27:37;;;;;;;9.25;7.25;;;5.50;1.00;;;;;;5095536;28;20020;-88
2021/01/01 10:30:06;;;;;;;12.40;9.73;;;5.60;1.00;;;;;;5094795;28;20467;-88
2021/01/01 10:32:31;;;;;;;15.27;11.40;;;5.50;1.00;;;;;;5095219;28;20089;-88
2021/01/01 10:34:57;;;;;;;12.43;10.02;;;5.30;1.00;;;;;;5095348;28;20040;-88
2021/01/01 10:37:23;;;;;;;9.98;8.10;;;5.40;1.00;;;;;;5096492;28;20104;-87
2021/01/01 10:39:48;;;;;;;10.60;7.55;;;5.50;1.00;;;;;;5095056;28;20051;-88
2021/01/01 10:42:14;;;;;;;9.73;7.38;;;5.40;1.00;;;;;;5095358;28;20370;-88
2021/01/01 10:44:39;;;;;;;11.32;7.32;;;5.40;1.00;;;;;;5096107;28;20024;-88
2021/01/01 10:47:05;;;;;;;10.48;7.00;;;5.60;1.00;;;;;;5114894;28;20068;-88
2021/01/01 10:49:31;;;;;;;9.10;7.28;;;5.50;1.00;;;;;;5115538;28;20483;-88
2021/01/01 10:51:57;;;;;;;9.43;7.68;;;5.30;1.00;;;;;;5115443;28;20499;-88
2021/01/01 10:54:23;;;;;;;8.85;7.03;;;5.40;1.00;;;;;;5115603;28;20023;-88
2021/01/01 10:56:49;;;;;;;8.32;6.75;;;5.60;1.00;;;;;;5115398;28;20015;-88
2021/01/01 10:59:14;;;;;;;10.27;7.65;;;5.50;1.00;;;;;;5109857;28;20392;-88
2021/01/01 11:01:40;;;;;;;10.02;7.80;;;5.50;1.00;;;;;;5114964;28;20036;-88
2021/01/01 11:04:06;;;;;;;8.90;6.70;;;5.50;1.00;;;;;;5115244;28;20020;-87
2021/01/01 11:06:35;;;;;;;9.55;7.47;;;5.60;1.00;;;;;;5116310;28;20102;-88
2021/01/01 11:09:02;;;;;;;8.85;7.07;;;5.60;1.00;;;;;;5115088;28;20565;-88
2021/01/01 11:11:27;;;;;;;12.35;8.40;;;5.50;1.00;;;;;;5116439;28;20391;-88
2021/01/01 12:25:27;;;;;;;13.40;9.70;;;4.90;1.00;;;;;;5027337;28;20050;-88
2021/01/01 12:27:57;;;;;;;11.15;9.27;;;4.90;1.00;;;;;;5092643;28;20028;-88
2021/01/01 12:30:25;;;;;;;13.70;9.57;;;5.00;1.00;;;;;;5092955;28;20131;-88
2021/01/01 12:32:52;;;;;;;12.15;9.45;;;4.80;1.00;;;;;;5093257;28;20020;-87
2021/01/01 12:35:18;;;;;;;11.20;9.00;;;4.80;1.00;;;;;;5094077;28;20028;-88
2021/01/01 12:37:46;;;;;;;12.63;8.88;;;4.80;1.00;;;;;;5092166;28;20027;-88
2021/01/01 12:40:12;;;;;;;12.57;9.60;;;4.70;1.00;;;;;;5092796;28;20032;-88
2021/01/01 12:42:38;;;;;;;11.65;9.05;;;4.70;1.00;;;;;;5101149;28;20024;-88
2021/01/01 12:45:05;;;;;;;11.13;8.77;;;4.90;1.00;;;;;;5113397;28;20396;-88
2021/01/01 12:47:32;;;;;;;13.43;9.63;;;4.80;1.00;;;;;;5113343;28;20024;-88
2021/01/01 12:49:58;;;;;;;12.32;8.75;;;4.80;1.00;;;;;;5113170;28;20495;-88
2021/01/01 12:52:24;;;;;;;12.40;8.60;;;4.80;1.00;;;;;;5114476;28;20106;-88
2021/01/01 12:54:49;;;;;;;12.23;9.45;;;4.80;1.00;;;;;;5113259;28;20031;-88
2021/01/01 12:57:15;;;;;;;10.35;8.73;;;4.90;1.00;;;;;;5109915;28;20035;-88
2021/01/01 12:59:40;;;;;;;11.52;9.10;;;4.90;1.00;;;;;;5113122;28;20023;-88
2021/01/01 13:02:06;;;;;;;12.27;9.65;;;5.00;1.00;;;;;;5113086;28;20022;-88
2021/01/01 13:04:32;;;;;;;14.38;11.30;;;5.00;1.00;;;;;;5113082;28;20329;-88
2021/01/01 13:06:57;;;;;;;12.98;10.20;;;5.00;1.00;;;;;;5112833;28;20024;-88
2021/01/01 13:09:23;;;;;;;14.70;10.23;;;4.80;1.00;;;;;;5112690;28;20049;-88
2021/01/01 13:11:48;;;;;;;12.25;9.45;;;4.80;1.00;;;;;;5101928;28;20489;-88
2021/01/01 13:14:15;;;;;;;12.65;10.63;;;4.80;1.00;;;;;;5110387;28;20027;-88
2021/01/01 13:16:42;;;;;;;14.63;10.27;;;5.00;1.00;;;;;;5112706;28;20029;-88
2021/01/01 13:19:08;;;;;;;11.18;9.77;;;4.70;1.00;;;;;;5112740;28;20046;-88
2021/01/01 13:21:35;;;;;;;12.55;10.15;;;4.70;1.00;;;;;;5112629;28;20396;-88
2021/01/01 13:24:03;;;;;;;13.45;9.73;;;4.70;1.00;;;;;;5112647;28;20433;-88
2021/01/01 13:26:29;;;;;;;11.73;9.07;;;4.70;1.00;;;;;;5103621;28;20493;-88
2021/01/01 13:28:56;;;;;;;13.95;10.48;;;4.60;1.00;;;;;;5092061;28;20035;-88
2021/01/01 13:31:23;;;;;;;13.52;10.48;;;4.70;1.00;;;;;;5093277;28;20104;-88
2021/01/01 13:33:52;;;;;;;12.65;9.65;;;4.70;1.00;;;;;;5093497;28;20031;-88
2021/01/01 13:36:20;;;;;;;12.85;10.02;;;4.70;1.00;;;;;;5091982;28;20594;-87
2021/01/01 13:38:47;;;;;;;13.77;11.05;;;4.80;1.00;;;;;;5092272;28;20123;-88
2021/01/01 13:41:13;;;;;;;12.10;10.27;;;4.70;1.00;;;;;;5090922;28;20050;-88
2021/01/01 13:43:44;;;;;;;12.93;10.07;;;4.80;1.00;;;;;;5091938;28;20374;-88
2021/01/01 13:46:18;;;;;;;13.15;10.07;;;4.90;1.00;;;;;;5091867;28;20023;-88
2021/01/01 13:48:43;;;;;;;14.77;11.07;;;4.70;1.00;;;;;;5092745;28;20028;-88
2021/01/01 13:51:09;;;;;;;12.77;10.02;;;4.60;1.00;;;;;;5091798;28;20562;-88
2021/01/01 13:53:35;;;;;;;14.98;10.43;;;4.50;1.00;;;;;;5092050;28;20114;-88
2021/01/01 13:56:00;;;;;;;15.75;10.70;;;4.90;1.00;;;;;;5091401;28;20035;-88
2021/01/01 13:58:26;;;;;;;13.90;10.52;;;4.60;1.00;;;;;;5091474;28;20028;-87
2021/01/01 14:00:52;;;;;;;12.10;9.98;;;4.60;1.00;;;;;;5101392;28;20055;-88
2021/01/01 14:03:18;;;;;;;14.88;11.52;;;4.70;1.00;;;;;;5111886;28;20378;-88
2021/01/01 14:05:48;;;;;;;13.60;10.00;;;4.70;1.00;;;;;;5113285;28;20024;-88
2021/01/01 14:08:18;;;;;;;14.18;10.77;;;4.70;1.00;;;;;;5111655;28;20051;-88
2021/01/01 14:10:45;;;;;;;13.32;9.93;;;4.70;1.00;;;;;;5108500;28;20093;-88
2021/01/01 14:13:12;;;;;;;14.00;10.75;;;4.50;1.00;;;;;;5113345;28;20069;-88
2021/01/01 14:15:37;;;;;;;13.73;10.27;;;4.60;1.00;;;;;;5111907;28;20040;-88